Unser Platzwetter:
(um das Bild zu aktualisieren oder bei unvollständig geladenem Bild den Reload-Button des Browsers drücken)

[Quelle: ADDS]
METAR
ETNN 302320Z 30003KT 9999 FEW016 BKN040 04/03 Q1027 BLU =
AMD ETNN 301401Z 3014/3023 33008KT 9999 NSW BKN050 BECMG 3018/3020 32005KT 9999 NSW BKN020 PROB30 3017/3020 33010KT 5000 SHRA BKN012TCU CANCEL BY ETGL
TAF
AMD ETNN 301401Z 3014/3023 33008KT 9999 NSW BKN050 BECMG 3018/3020 32005KT 9999 NSW BKN020 PROB30 3017/3020 33010KT 5000 SHRA BKN012TCU CANCEL BY ETGL =
SR / SS: 05:10 / 18:04 UTC (Vettweiss-Soller 2020-03-31)

 

Hier gibt es ein Wetterdiagramm der letzten 7 Tage.

PPR beachten

50 44 51 N / 06 34 01 E
525 ft
14/32 Gras 360 m
136.090 MHz
02424/901444

Kontakt:

LSG Gertrundenhof e.V.
c/o Rolf Viehs
Scheffensweg 33
52393 Hürtgenwald-Gey
02429/908222
0178/8845333

in Lokalzeit:
07:08
20:06